Terminal Aerodrome Forecast
Issued by NWS Mt. Holly, NJ

Home | Current Version | Previous Version | Text Only | Print | Product List | Glossary On
Versions: 1 2 3 4 5 6 7 8 9 10 11 12 13 14
000
FTUS41 KPHI 210500
TAFRDG
TAF
KRDG 210539Z 2106/2206 17004KT P6SM VCSH BKN035
      TEMPO 2106/2109 BKN025
     FM210900 VRB02KT 5SM BR BKN025
     FM211400 23004KT P6SM SCT025 BKN040
     FM211900 23006KT P6SM -SHRA BKN040 BKN100
     FM212200 18004KT 6SM SHRA SCT025 OVC040
      TEMPO 2200/2203 5SM SHRA BKN025=

USA.gov is the U.S. government's official web portal to all federal, state and local government web resources and services.